sensor_id;sensor_type;location;lat;lon;timestamp;P1;durP1;ratioP1;P2;durP2;ratioP2
65289;SDS011;51893;59.754;10.110;2023-04-03T00:01:20;2.50;;;2.10;;
65289;SDS011;51893;59.754;10.110;2023-04-03T00:03:49;6.80;;;2.50;;
65289;SDS011;51893;59.754;10.110;2023-04-03T00:06:19;9.70;;;3.20;;
65289;SDS011;51893;59.754;10.110;2023-04-03T00:08:46;5.90;;;2.70;;
65289;SDS011;51893;59.754;10.110;2023-04-03T00:11:16;5.90;;;3.00;;
65289;SDS011;51893;59.754;10.110;2023-04-03T00:13:44;10.20;;;3.10;;
65289;SDS011;51893;59.754;10.110;2023-04-03T00:16:15;12.50;;;2.90;;
65289;SDS011;51893;59.754;10.110;2023-04-03T00:18:42;5.70;;;2.70;;
65289;SDS011;51893;59.754;10.110;2023-04-03T00:21:13;7.70;;;2.50;;
65289;SDS011;51893;59.754;10.110;2023-04-03T00:23:41;7.30;;;2.70;;
65289;SDS011;51893;59.754;10.110;2023-04-03T00:26:08;7.80;;;2.30;;
65289;SDS011;51893;59.754;10.110;2023-04-03T00:28:35;4.30;;;2.80;;
65289;SDS011;51893;59.754;10.110;2023-04-03T00:31:03;6.80;;;2.70;;
65289;SDS011;51893;59.754;10.110;2023-04-03T00:33:30;7.30;;;2.60;;
65289;SDS011;51893;59.754;10.110;2023-04-03T00:35:57;12.40;;;2.60;;
65289;SDS011;51893;59.754;10.110;2023-04-03T00:38:24;8.10;;;2.60;;
65289;SDS011;51893;59.754;10.110;2023-04-03T00:40:52;7.70;;;2.40;;
65289;SDS011;51893;59.754;10.110;2023-04-03T00:43:25;5.60;;;2.40;;
65289;SDS011;51893;59.754;10.110;2023-04-03T00:45:55;4.10;;;2.60;;
65289;SDS011;51893;59.754;10.110;2023-04-03T00:48:44;4.80;;;2.30;;
65289;SDS011;51893;59.754;10.110;2023-04-03T00:51:17;9.10;;;2.50;;
65289;SDS011;51893;59.754;10.110;2023-04-03T00:53:59;3.60;;;2.20;;
65289;SDS011;51893;59.754;10.110;2023-04-03T00:56:30;5.40;;;2.70;;
65289;SDS011;51893;59.754;10.110;2023-04-03T00:59:12;5.30;;;2.70;;
65289;SDS011;51893;59.754;10.110;2023-04-03T01:01:44;4.10;;;1.70;;
65289;SDS011;51893;59.754;10.110;2023-04-03T01:04:32;3.00;;;1.90;;
65289;SDS011;51893;59.754;10.110;2023-04-03T01:07:24;5.30;;;2.40;;
65289;SDS011;51893;59.754;10.110;2023-04-03T01:09:57;6.20;;;2.70;;
65289;SDS011;51893;59.754;10.110;2023-04-03T01:12:31;5.20;;;2.40;;
65289;SDS011;51893;59.754;10.110;2023-04-03T01:15:05;5.90;;;2.40;;
65289;SDS011;51893;59.754;10.110;2023-04-03T01:17:46;5.50;;;2.50;;
65289;SDS011;51893;59.754;10.110;2023-04-03T01:23:12;4.90;;;2.70;;
65289;SDS011;51893;59.754;10.110;2023-04-03T01:28:25;7.10;;;2.50;;
65289;SDS011;51893;59.754;10.110;2023-04-03T01:31:28;3.50;;;2.20;;
65289;SDS011;51893;59.754;10.110;2023-04-03T01:34:07;4.60;;;2.60;;
65289;SDS011;51893;59.754;10.110;2023-04-03T01:36:35;8.00;;;2.90;;
65289;SDS011;51893;59.754;10.110;2023-04-03T01:39:02;7.10;;;2.90;;
65289;SDS011;51893;59.754;10.110;2023-04-03T01:41:29;6.90;;;2.50;;
65289;SDS011;51893;59.754;10.110;2023-04-03T01:43:56;5.80;;;3.10;;
65289;SDS011;51893;59.754;10.110;2023-04-03T01:46:23;8.10;;;2.80;;
65289;SDS011;51893;59.754;10.110;2023-04-03T01:48:51;3.20;;;2.30;;
65289;SDS011;51893;59.754;10.110;2023-04-03T01:51:17;5.10;;;2.50;;
65289;SDS011;51893;59.754;10.110;2023-04-03T01:53:46;4.20;;;2.70;;
65289;SDS011;51893;59.754;10.110;2023-04-03T01:56:13;4.80;;;2.70;;
65289;SDS011;51893;59.754;10.110;2023-04-03T01:58:40;8.30;;;2.30;;
65289;SDS011;51893;59.754;10.110;2023-04-03T02:01:07;5.20;;;2.60;;
65289;SDS011;51893;59.754;10.110;2023-04-03T02:03:33;6.50;;;2.50;;
65289;SDS011;51893;59.754;10.110;2023-04-03T02:06:00;5.10;;;2.50;;
65289;SDS011;51893;59.754;10.110;2023-04-03T02:08:27;5.60;;;2.10;;
65289;SDS011;51893;59.754;10.110;2023-04-03T02:10:58;6.40;;;3.30;;
65289;SDS011;51893;59.754;10.110;2023-04-03T02:13:25;8.00;;;3.50;;
65289;SDS011;51893;59.754;10.110;2023-04-03T02:15:52;5.10;;;3.20;;
65289;SDS011;51893;59.754;10.110;2023-04-03T02:18:19;8.00;;;3.30;;
65289;SDS011;51893;59.754;10.110;2023-04-03T02:20:46;5.90;;;3.00;;
65289;SDS011;51893;59.754;10.110;2023-04-03T02:23:14;6.70;;;2.80;;
65289;SDS011;51893;59.754;10.110;2023-04-03T02:25:40;11.00;;;3.30;;
65289;SDS011;51893;59.754;10.110;2023-04-03T02:28:07;5.80;;;3.30;;
65289;SDS011;51893;59.754;10.110;2023-04-03T02:30:34;5.60;;;3.10;;
65289;SDS011;51893;59.754;10.110;2023-04-03T02:33:02;3.60;;;2.80;;
65289;SDS011;51893;59.754;10.110;2023-04-03T02:35:31;3.70;;;2.50;;
65289;SDS011;51893;59.754;10.110;2023-04-03T02:37:58;5.40;;;2.70;;
65289;SDS011;51893;59.754;10.110;2023-04-03T02:40:24;8.00;;;3.00;;
65289;SDS011;51893;59.754;10.110;2023-04-03T02:42:52;9.20;;;3.00;;
65289;SDS011;51893;59.754;10.110;2023-04-03T02:45:19;6.90;;;3.20;;
65289;SDS011;51893;59.754;10.110;2023-04-03T02:47:45;4.10;;;2.60;;
65289;SDS011;51893;59.754;10.110;2023-04-03T02:50:13;11.00;;;3.10;;
65289;SDS011;51893;59.754;10.110;2023-04-03T02:52:40;7.20;;;3.30;;
65289;SDS011;51893;59.754;10.110;2023-04-03T02:55:08;6.20;;;3.10;;
65289;SDS011;51893;59.754;10.110;2023-04-03T02:57:35;7.70;;;3.70;;
65289;SDS011;51893;59.754;10.110;2023-04-03T03:00:02;6.00;;;3.10;;
65289;SDS011;51893;59.754;10.110;2023-04-03T03:02:29;4.80;;;2.60;;
65289;SDS011;51893;59.754;10.110;2023-04-03T03:04:56;5.40;;;2.90;;
65289;SDS011;51893;59.754;10.110;2023-04-03T03:07:22;9.70;;;3.60;;
65289;SDS011;51893;59.754;10.110;2023-04-03T03:09:49;11.90;;;3.10;;
65289;SDS011;51893;59.754;10.110;2023-04-03T03:12:18;4.60;;;2.80;;
65289;SDS011;51893;59.754;10.110;2023-04-03T03:14:48;6.60;;;3.30;;
65289;SDS011;51893;59.754;10.110;2023-04-03T03:17:15;6.30;;;2.40;;
65289;SDS011;51893;59.754;10.110;2023-04-03T03:19:42;3.20;;;2.40;;
65289;SDS011;51893;59.754;10.110;2023-04-03T03:22:09;7.20;;;2.70;;
65289;SDS011;51893;59.754;10.110;2023-04-03T03:24:35;4.20;;;2.00;;
65289;SDS011;51893;59.754;10.110;2023-04-03T03:27:03;3.70;;;2.00;;
65289;SDS011;51893;59.754;10.110;2023-04-03T03:29:31;10.00;;;2.60;;
65289;SDS011;51893;59.754;10.110;2023-04-03T03:31:59;4.00;;;2.30;;
65289;SDS011;51893;59.754;10.110;2023-04-03T03:34:25;3.70;;;2.60;;
65289;SDS011;51893;59.754;10.110;2023-04-03T03:36:52;3.70;;;2.30;;
65289;SDS011;51893;59.754;10.110;2023-04-03T03:39:18;5.40;;;1.80;;
65289;SDS011;51893;59.754;10.110;2023-04-03T03:41:46;8.60;;;2.10;;
65289;SDS011;51893;59.754;10.110;2023-04-03T03:44:13;11.60;;;2.90;;
65289;SDS011;51893;59.754;10.110;2023-04-03T03:46:44;6.10;;;2.40;;
65289;SDS011;51893;59.754;10.110;2023-04-03T03:49:12;12.60;;;2.30;;
65289;SDS011;51893;59.754;10.110;2023-04-03T03:51:40;14.20;;;2.50;;
65289;SDS011;51893;59.754;10.110;2023-04-03T03:54:07;7.60;;;2.40;;
65289;SDS011;51893;59.754;10.110;2023-04-03T03:56:37;8.00;;;2.30;;
65289;SDS011;51893;59.754;10.110;2023-04-03T03:59:04;9.80;;;2.50;;
65289;SDS011;51893;59.754;10.110;2023-04-03T04:01:31;6.90;;;2.30;;
65289;SDS011;51893;59.754;10.110;2023-04-03T04:03:59;6.00;;;2.00;;
65289;SDS011;51893;59.754;10.110;2023-04-03T04:06:28;9.10;;;2.80;;
65289;SDS011;51893;59.754;10.110;2023-04-03T04:08:55;6.80;;;2.20;;
65289;SDS011;51893;59.754;10.110;2023-04-03T04:11:21;9.10;;;2.80;;
65289;SDS011;51893;59.754;10.110;2023-04-03T04:13:49;5.90;;;2.40;;
65289;SDS011;51893;59.754;10.110;2023-04-03T04:16:16;9.50;;;2.30;;
65289;SDS011;51893;59.754;10.110;2023-04-03T04:18:44;7.60;;;2.50;;
65289;SDS011;51893;59.754;10.110;2023-04-03T04:21:12;3.60;;;2.40;;
65289;SDS011;51893;59.754;10.110;2023-04-03T04:23:40;6.60;;;2.00;;
65289;SDS011;51893;59.754;10.110;2023-04-03T04:26:07;3.20;;;2.20;;
65289;SDS011;51893;59.754;10.110;2023-04-03T04:28:33;8.00;;;1.90;;
65289;SDS011;51893;59.754;10.110;2023-04-03T04:31:01;13.10;;;2.50;;
65289;SDS011;51893;59.754;10.110;2023-04-03T04:33:28;5.80;;;2.00;;
65289;SDS011;51893;59.754;10.110;2023-04-03T04:35:54;5.60;;;2.00;;
65289;SDS011;51893;59.754;10.110;2023-04-03T04:38:24;14.50;;;2.20;;
65289;SDS011;51893;59.754;10.110;2023-04-03T04:40:51;17.00;;;2.50;;
65289;SDS011;51893;59.754;10.110;2023-04-03T04:43:18;11.30;;;2.20;;
65289;SDS011;51893;59.754;10.110;2023-04-03T04:45:47;5.70;;;2.00;;
65289;SDS011;51893;59.754;10.110;2023-04-03T04:48:16;12.00;;;2.40;;
65289;SDS011;51893;59.754;10.110;2023-04-03T04:50:43;5.50;;;1.90;;
65289;SDS011;51893;59.754;10.110;2023-04-03T04:53:10;8.90;;;2.00;;
65289;SDS011;51893;59.754;10.110;2023-04-03T04:55:39;2.40;;;1.60;;
65289;SDS011;51893;59.754;10.110;2023-04-03T04:58:06;8.80;;;1.80;;
65289;SDS011;51893;59.754;10.110;2023-04-03T05:00:35;7.60;;;2.30;;
65289;SDS011;51893;59.754;10.110;2023-04-03T05:03:03;9.60;;;2.40;;
65289;SDS011;51893;59.754;10.110;2023-04-03T05:05:30;7.60;;;2.50;;
65289;SDS011;51893;59.754;10.110;2023-04-03T05:07:57;14.30;;;2.00;;
65289;SDS011;51893;59.754;10.110;2023-04-03T05:10:25;4.40;;;2.30;;
65289;SDS011;51893;59.754;10.110;2023-04-03T05:12:51;8.50;;;2.80;;
65289;SDS011;51893;59.754;10.110;2023-04-03T05:15:18;8.40;;;2.60;;
65289;SDS011;51893;59.754;10.110;2023-04-03T05:17:47;9.80;;;2.70;;
65289;SDS011;51893;59.754;10.110;2023-04-03T05:20:14;10.70;;;2.70;;
65289;SDS011;51893;59.754;10.110;2023-04-03T05:22:41;4.50;;;2.70;;
65289;SDS011;51893;59.754;10.110;2023-04-03T05:25:09;9.60;;;2.60;;
65289;SDS011;51893;59.754;10.110;2023-04-03T05:27:36;6.80;;;2.10;;
65289;SDS011;51893;59.754;10.110;2023-04-03T05:30:05;8.70;;;3.20;;
65289;SDS011;51893;59.754;10.110;2023-04-03T05:32:32;2.10;;;1.00;;
65289;SDS011;51893;59.754;10.110;2023-04-03T05:34:59;5.90;;;2.40;;
65289;SDS011;51893;59.754;10.110;2023-04-03T05:37:27;5.60;;;2.20;;
65289;SDS011;51893;59.754;10.110;2023-04-03T05:39:54;4.50;;;2.20;;
65289;SDS011;51893;59.754;10.110;2023-04-03T05:42:21;7.80;;;2.70;;
65289;SDS011;51893;59.754;10.110;2023-04-03T05:44:49;7.80;;;2.60;;
65289;SDS011;51893;59.754;10.110;2023-04-03T05:47:18;7.20;;;1.70;;
65289;SDS011;51893;59.754;10.110;2023-04-03T05:49:45;7.00;;;2.10;;
65289;SDS011;51893;59.754;10.110;2023-04-03T05:52:35;6.30;;;2.00;;
65289;SDS011;51893;59.754;10.110;2023-04-03T05:55:06;2.00;;;1.80;;
65289;SDS011;51893;59.754;10.110;2023-04-03T05:57:32;10.90;;;2.20;;
65289;SDS011;51893;59.754;10.110;2023-04-03T05:59:59;4.60;;;1.80;;
65289;SDS011;51893;59.754;10.110;2023-04-03T06:02:26;11.90;;;1.90;;
65289;SDS011;51893;59.754;10.110;2023-04-03T06:04:54;9.40;;;2.30;;
65289;SDS011;51893;59.754;10.110;2023-04-03T06:07:22;7.60;;;2.80;;
65289;SDS011;51893;59.754;10.110;2023-04-03T06:09:57;3.20;;;2.10;;
65289;SDS011;51893;59.754;10.110;2023-04-03T06:12:24;8.50;;;2.40;;
65289;SDS011;51893;59.754;10.110;2023-04-03T06:14:51;14.60;;;2.50;;
65289;SDS011;51893;59.754;10.110;2023-04-03T06:17:18;9.60;;;2.20;;
65289;SDS011;51893;59.754;10.110;2023-04-03T06:19:46;3.20;;;2.10;;
65289;SDS011;51893;59.754;10.110;2023-04-03T06:22:14;7.90;;;2.40;;
65289;SDS011;51893;59.754;10.110;2023-04-03T06:24:43;9.00;;;3.20;;
65289;SDS011;51893;59.754;10.110;2023-04-03T06:27:11;7.40;;;2.80;;
65289;SDS011;51893;59.754;10.110;2023-04-03T06:29:39;10.70;;;2.20;;
65289;SDS011;51893;59.754;10.110;2023-04-03T06:32:06;22.30;;;3.40;;
65289;SDS011;51893;59.754;10.110;2023-04-03T06:34:33;7.50;;;1.10;;
65289;SDS011;51893;59.754;10.110;2023-04-03T06:37:00;6.40;;;2.20;;
65289;SDS011;51893;59.754;10.110;2023-04-03T06:39:27;5.30;;;2.10;;
65289;SDS011;51893;59.754;10.110;2023-04-03T06:41:57;11.00;;;2.20;;
65289;SDS011;51893;59.754;10.110;2023-04-03T06:44:26;1.30;;;1.10;;
65289;SDS011;51893;59.754;10.110;2023-04-03T06:46:55;5.20;;;1.90;;
65289;SDS011;51893;59.754;10.110;2023-04-03T06:49:24;4.80;;;1.90;;
65289;SDS011;51893;59.754;10.110;2023-04-03T06:51:51;18.20;;;2.70;;
65289;SDS011;51893;59.754;10.110;2023-04-03T06:54:20;6.10;;;2.10;;
65289;SDS011;51893;59.754;10.110;2023-04-03T06:56:52;5.90;;;2.40;;
65289;SDS011;51893;59.754;10.110;2023-04-03T06:59:20;13.20;;;2.70;;
65289;SDS011;51893;59.754;10.110;2023-04-03T07:01:47;14.30;;;2.00;;
65289;SDS011;51893;59.754;10.110;2023-04-03T07:04:16;11.20;;;2.40;;
65289;SDS011;51893;59.754;10.110;2023-04-03T07:06:42;7.00;;;2.20;;
65289;SDS011;51893;59.754;10.110;2023-04-03T07:09:10;4.50;;;1.50;;
65289;SDS011;51893;59.754;10.110;2023-04-03T07:11:39;4.40;;;1.60;;
65289;SDS011;51893;59.754;10.110;2023-04-03T07:14:05;7.90;;;2.40;;
65289;SDS011;51893;59.754;10.110;2023-04-03T07:16:37;8.30;;;2.40;;
65289;SDS011;51893;59.754;10.110;2023-04-03T07:19:10;3.70;;;2.20;;
65289;SDS011;51893;59.754;10.110;2023-04-03T07:21:37;10.00;;;1.90;;
65289;SDS011;51893;59.754;10.110;2023-04-03T07:24:04;5.90;;;1.80;;
65289;SDS011;51893;59.754;10.110;2023-04-03T07:26:32;5.10;;;1.50;;
65289;SDS011;51893;59.754;10.110;2023-04-03T07:28:59;3.00;;;1.30;;
65289;SDS011;51893;59.754;10.110;2023-04-03T07:31:26;3.50;;;1.10;;
65289;SDS011;51893;59.754;10.110;2023-04-03T07:33:52;8.50;;;1.80;;
65289;SDS011;51893;59.754;10.110;2023-04-03T07:36:22;3.40;;;1.10;;
65289;SDS011;51893;59.754;10.110;2023-04-03T07:38:51;5.40;;;1.40;;
65289;SDS011;51893;59.754;10.110;2023-04-03T07:41:20;5.80;;;1.30;;
65289;SDS011;51893;59.754;10.110;2023-04-03T07:43:48;4.10;;;1.60;;
65289;SDS011;51893;59.754;10.110;2023-04-03T07:46:16;9.90;;;2.00;;
65289;SDS011;51893;59.754;10.110;2023-04-03T07:48:45;10.30;;;2.10;;
65289;SDS011;51893;59.754;10.110;2023-04-03T07:51:14;3.30;;;1.40;;
65289;SDS011;51893;59.754;10.110;2023-04-03T07:53:44;3.80;;;1.50;;
65289;SDS011;51893;59.754;10.110;2023-04-03T07:56:16;2.90;;;1.30;;
65289;SDS011;51893;59.754;10.110;2023-04-03T07:58:43;2.70;;;1.50;;
65289;SDS011;51893;59.754;10.110;2023-04-03T08:01:13;7.80;;;1.30;;
65289;SDS011;51893;59.754;10.110;2023-04-03T08:03:40;4.60;;;1.30;;
65289;SDS011;51893;59.754;10.110;2023-04-03T08:06:08;1.80;;;0.80;;
65289;SDS011;51893;59.754;10.110;2023-04-03T08:08:42;3.70;;;1.90;;
65289;SDS011;51893;59.754;10.110;2023-04-03T08:11:11;6.30;;;1.60;;
65289;SDS011;51893;59.754;10.110;2023-04-03T08:13:39;4.60;;;1.70;;
65289;SDS011;51893;59.754;10.110;2023-04-03T08:16:12;3.60;;;1.70;;
65289;SDS011;51893;59.754;10.110;2023-04-03T08:18:44;5.50;;;1.30;;
65289;SDS011;51893;59.754;10.110;2023-04-03T08:21:12;2.00;;;1.50;;
65289;SDS011;51893;59.754;10.110;2023-04-03T08:23:42;2.00;;;1.20;;
65289;SDS011;51893;59.754;10.110;2023-04-03T08:26:12;1.70;;;1.10;;
65289;SDS011;51893;59.754;10.110;2023-04-03T08:28:42;6.60;;;1.10;;
65289;SDS011;51893;59.754;10.110;2023-04-03T08:31:12;2.80;;;1.20;;
65289;SDS011;51893;59.754;10.110;2023-04-03T08:33:42;4.20;;;1.40;;
65289;SDS011;51893;59.754;10.110;2023-04-03T08:36:20;4.60;;;1.80;;
65289;SDS011;51893;59.754;10.110;2023-04-03T08:38:54;8.30;;;1.80;;
65289;SDS011;51893;59.754;10.110;2023-04-03T08:41:40;5.00;;;1.20;;
65289;SDS011;51893;59.754;10.110;2023-04-03T08:44:38;3.30;;;1.50;;
65289;SDS011;51893;59.754;10.110;2023-04-03T08:49:59;2.70;;;1.80;;
65289;SDS011;51893;59.754;10.110;2023-04-03T08:52:42;2.10;;;1.80;;
65289;SDS011;51893;59.754;10.110;2023-04-03T08:55:25;5.60;;;2.10;;
65289;SDS011;51893;59.754;10.110;2023-04-03T08:58:01;5.70;;;2.20;;
65289;SDS011;51893;59.754;10.110;2023-04-03T09:00:54;8.00;;;1.90;;
65289;SDS011;51893;59.754;10.110;2023-04-03T09:03:24;2.90;;;1.80;;
65289;SDS011;51893;59.754;10.110;2023-04-03T09:06:18;6.80;;;2.50;;
65289;SDS011;51893;59.754;10.110;2023-04-03T09:09:09;7.30;;;2.20;;
65289;SDS011;51893;59.754;10.110;2023-04-03T09:18:04;4.40;;;2.50;;
65289;SDS011;51893;59.754;10.110;2023-04-03T09:21:01;11.40;;;2.50;;
65289;SDS011;51893;59.754;10.110;2023-04-03T09:23:43;6.30;;;2.60;;
65289;SDS011;51893;59.754;10.110;2023-04-03T09:26:38;8.10;;;2.80;;
65289;SDS011;51893;59.754;10.110;2023-04-03T09:29:08;4.40;;;2.10;;
65289;SDS011;51893;59.754;10.110;2023-04-03T09:31:49;8.30;;;2.90;;
65289;SDS011;51893;59.754;10.110;2023-04-03T09:34:26;4.30;;;2.00;;
65289;SDS011;51893;59.754;10.110;2023-04-03T09:36:57;5.30;;;1.80;;
65289;SDS011;51893;59.754;10.110;2023-04-03T09:39:49;6.10;;;3.10;;
65289;SDS011;51893;59.754;10.110;2023-04-03T09:42:22;4.40;;;2.00;;
65289;SDS011;51893;59.754;10.110;2023-04-03T09:44:55;2.50;;;1.50;;
65289;SDS011;51893;59.754;10.110;2023-04-03T09:47:34;3.10;;;1.80;;
65289;SDS011;51893;59.754;10.110;2023-04-03T09:52:58;6.60;;;1.80;;
65289;SDS011;51893;59.754;10.110;2023-04-03T09:55:27;1.80;;;1.40;;
65289;SDS011;51893;59.754;10.110;2023-04-03T09:58:23;7.90;;;2.10;;
65289;SDS011;51893;59.754;10.110;2023-04-03T10:01:32;7.50;;;2.50;;
65289;SDS011;51893;59.754;10.110;2023-04-03T10:04:13;1.70;;;1.60;;
65289;SDS011;51893;59.754;10.110;2023-04-03T10:09:21;6.40;;;2.30;;
65289;SDS011;51893;59.754;10.110;2023-04-03T10:12:11;12.70;;;2.40;;
65289;SDS011;51893;59.754;10.110;2023-04-03T10:20:51;4.90;;;2.00;;
65289;SDS011;51893;59.754;10.110;2023-04-03T10:23:28;8.90;;;2.30;;
65289;SDS011;51893;59.754;10.110;2023-04-03T10:29:43;3.00;;;1.80;;
65289;SDS011;51893;59.754;10.110;2023-04-03T10:32:48;7.70;;;2.00;;
65289;SDS011;51893;59.754;10.110;2023-04-03T10:36:08;4.90;;;2.20;;
65289;SDS011;51893;59.754;10.110;2023-04-03T10:39:08;2.80;;;1.90;;
65289;SDS011;51893;59.754;10.110;2023-04-03T10:42:08;12.40;;;2.50;;
65289;SDS011;51893;59.754;10.110;2023-04-03T10:53:41;2.20;;;1.20;;
65289;SDS011;51893;59.754;10.110;2023-04-03T10:56:42;3.60;;;1.80;;
65289;SDS011;51893;59.754;10.110;2023-04-03T11:02:22;3.30;;;1.80;;
65289;SDS011;51893;59.754;10.110;2023-04-03T11:05:02;4.50;;;1.50;;
65289;SDS011;51893;59.754;10.110;2023-04-03T11:07:43;6.20;;;2.20;;
65289;SDS011;51893;59.754;10.110;2023-04-03T11:10:25;2.80;;;1.80;;
65289;SDS011;51893;59.754;10.110;2023-04-03T11:13:18;4.30;;;1.80;;
65289;SDS011;51893;59.754;10.110;2023-04-03T11:16:08;1.70;;;1.10;;
65289;SDS011;51893;59.754;10.110;2023-04-03T11:18:41;5.00;;;1.90;;
65289;SDS011;51893;59.754;10.110;2023-04-03T11:21:37;7.10;;;1.90;;
65289;SDS011;51893;59.754;10.110;2023-04-03T11:24:20;6.20;;;1.70;;
65289;SDS011;51893;59.754;10.110;2023-04-03T11:26:53;4.30;;;1.70;;
65289;SDS011;51893;59.754;10.110;2023-04-03T11:29:26;7.00;;;3.10;;
65289;SDS011;51893;59.754;10.110;2023-04-03T11:32:23;13.90;;;2.50;;
65289;SDS011;51893;59.754;10.110;2023-04-03T11:34:58;6.10;;;1.90;;
65289;SDS011;51893;59.754;10.110;2023-04-03T11:37:33;3.30;;;2.10;;
65289;SDS011;51893;59.754;10.110;2023-04-03T11:40:28;8.30;;;2.20;;
65289;SDS011;51893;59.754;10.110;2023-04-03T11:47:59;5.50;;;2.00;;
65289;SDS011;51893;59.754;10.110;2023-04-03T11:50:48;5.50;;;1.70;;
65289;SDS011;51893;59.754;10.110;2023-04-03T11:58:25;10.10;;;2.30;;
65289;SDS011;51893;59.754;10.110;2023-04-03T12:04:25;7.00;;;2.20;;
65289;SDS011;51893;59.754;10.110;2023-04-03T12:07:17;17.60;;;2.10;;
65289;SDS011;51893;59.754;10.110;2023-04-03T12:12:39;9.00;;;1.50;;
65289;SDS011;51893;59.754;10.110;2023-04-03T12:15:26;4.00;;;1.90;;
65289;SDS011;51893;59.754;10.110;2023-04-03T12:18:43;4.40;;;1.30;;
65289;SDS011;51893;59.754;10.110;2023-04-03T12:21:13;3.90;;;1.40;;
65289;SDS011;51893;59.754;10.110;2023-04-03T12:24:00;1.80;;;1.30;;
65289;SDS011;51893;59.754;10.110;2023-04-03T12:29:53;6.50;;;1.80;;
65289;SDS011;51893;59.754;10.110;2023-04-03T12:32:51;7.10;;;2.00;;
65289;SDS011;51893;59.754;10.110;2023-04-03T12:36:06;3.90;;;1.70;;
65289;SDS011;51893;59.754;10.110;2023-04-03T12:39:06;5.10;;;1.60;;
65289;SDS011;51893;59.754;10.110;2023-04-03T12:41:56;3.20;;;1.50;;
65289;SDS011;51893;59.754;10.110;2023-04-03T12:45:02;2.50;;;1.30;;
65289;SDS011;51893;59.754;10.110;2023-04-03T12:47:51;1.60;;;1.30;;
65289;SDS011;51893;59.754;10.110;2023-04-03T12:52:56;5.00;;;1.60;;
65289;SDS011;51893;59.754;10.110;2023-04-03T12:55:26;7.90;;;1.30;;
65289;SDS011;51893;59.754;10.110;2023-04-03T12:57:56;6.70;;;1.40;;
65289;SDS011;51893;59.754;10.110;2023-04-03T13:00:30;9.00;;;1.60;;
65289;SDS011;51893;59.754;10.110;2023-04-03T13:03:01;5.60;;;1.90;;
65289;SDS011;51893;59.754;10.110;2023-04-03T13:05:32;4.20;;;1.70;;
65289;SDS011;51893;59.754;10.110;2023-04-03T13:08:08;4.10;;;1.30;;
65289;SDS011;51893;59.754;10.110;2023-04-03T13:10:47;5.50;;;1.70;;
65289;SDS011;51893;59.754;10.110;2023-04-03T13:13:22;2.30;;;1.30;;
65289;SDS011;51893;59.754;10.110;2023-04-03T13:15:49;2.80;;;1.50;;
65289;SDS011;51893;59.754;10.110;2023-04-03T13:18:37;3.90;;;1.50;;
65289;SDS011;51893;59.754;10.110;2023-04-03T13:21:13;7.10;;;1.60;;
65289;SDS011;51893;59.754;10.110;2023-04-03T13:23:47;4.30;;;1.40;;
65289;SDS011;51893;59.754;10.110;2023-04-03T13:26:27;10.30;;;1.50;;
65289;SDS011;51893;59.754;10.110;2023-04-03T13:29:00;22.20;;;1.90;;
65289;SDS011;51893;59.754;10.110;2023-04-03T13:31:38;6.90;;;1.40;;
65289;SDS011;51893;59.754;10.110;2023-04-03T13:36:40;2.90;;;0.90;;
65289;SDS011;51893;59.754;10.110;2023-04-03T13:41:48;5.60;;;1.30;;
65289;SDS011;51893;59.754;10.110;2023-04-03T13:49:58;11.30;;;1.30;;
65289;SDS011;51893;59.754;10.110;2023-04-03T13:52:38;3.10;;;0.90;;
65289;SDS011;51893;59.754;10.110;2023-04-03T13:58:22;3.50;;;1.00;;
65289;SDS011;51893;59.754;10.110;2023-04-03T14:05:57;4.80;;;1.20;;
65289;SDS011;51893;59.754;10.110;2023-04-03T14:08:24;3.40;;;1.10;;
65289;SDS011;51893;59.754;10.110;2023-04-03T14:11:20;3.80;;;1.30;;
65289;SDS011;51893;59.754;10.110;2023-04-03T14:13:50;5.10;;;1.40;;
65289;SDS011;51893;59.754;10.110;2023-04-03T14:16:42;9.80;;;2.10;;
65289;SDS011;51893;59.754;10.110;2023-04-03T14:19:29;8.90;;;2.20;;
65289;SDS011;51893;59.754;10.110;2023-04-03T14:21:59;7.40;;;1.20;;
65289;SDS011;51893;59.754;10.110;2023-04-03T14:24:29;7.50;;;1.40;;
65289;SDS011;51893;59.754;10.110;2023-04-03T14:26:57;6.80;;;1.30;;
65289;SDS011;51893;59.754;10.110;2023-04-03T14:29:24;4.50;;;1.10;;
65289;SDS011;51893;59.754;10.110;2023-04-03T14:31:51;3.90;;;1.00;;
65289;SDS011;51893;59.754;10.110;2023-04-03T14:34:38;8.00;;;1.30;;
65289;SDS011;51893;59.754;10.110;2023-04-03T14:37:09;3.10;;;1.10;;
65289;SDS011;51893;59.754;10.110;2023-04-03T14:39:39;2.80;;;1.20;;
65289;SDS011;51893;59.754;10.110;2023-04-03T14:42:16;3.40;;;1.20;;
65289;SDS011;51893;59.754;10.110;2023-04-03T14:44:49;4.90;;;1.40;;
65289;SDS011;51893;59.754;10.110;2023-04-03T14:47:21;5.70;;;1.60;;
65289;SDS011;51893;59.754;10.110;2023-04-03T14:50:04;8.00;;;1.70;;
65289;SDS011;51893;59.754;10.110;2023-04-03T14:52:35;5.10;;;1.20;;
65289;SDS011;51893;59.754;10.110;2023-04-03T14:55:12;3.70;;;1.60;;
65289;SDS011;51893;59.754;10.110;2023-04-03T14:57:42;7.80;;;1.30;;
65289;SDS011;51893;59.754;10.110;2023-04-03T15:00:14;8.70;;;1.30;;
65289;SDS011;51893;59.754;10.110;2023-04-03T15:02:47;1.80;;;1.00;;
65289;SDS011;51893;59.754;10.110;2023-04-03T15:05:16;6.50;;;1.50;;
65289;SDS011;51893;59.754;10.110;2023-04-03T15:07:54;5.70;;;1.50;;
65289;SDS011;51893;59.754;10.110;2023-04-03T15:10:28;3.40;;;1.20;;
65289;SDS011;51893;59.754;10.110;2023-04-03T15:13:03;5.50;;;1.30;;
65289;SDS011;51893;59.754;10.110;2023-04-03T15:15:31;4.20;;;1.30;;
65289;SDS011;51893;59.754;10.110;2023-04-03T15:18:00;3.50;;;0.80;;
65289;SDS011;51893;59.754;10.110;2023-04-03T15:20:33;2.00;;;1.30;;
65289;SDS011;51893;59.754;10.110;2023-04-03T15:23:02;3.10;;;1.50;;
65289;SDS011;51893;59.754;10.110;2023-04-03T15:25:29;1.80;;;0.80;;
65289;SDS011;51893;59.754;10.110;2023-04-03T15:27:56;3.70;;;1.10;;
65289;SDS011;51893;59.754;10.110;2023-04-03T15:30:26;6.60;;;1.20;;
65289;SDS011;51893;59.754;10.110;2023-04-03T15:32:57;5.40;;;0.90;;
65289;SDS011;51893;59.754;10.110;2023-04-03T15:35:24;6.90;;;1.20;;
65289;SDS011;51893;59.754;10.110;2023-04-03T15:37:55;3.50;;;1.10;;
65289;SDS011;51893;59.754;10.110;2023-04-03T15:40:22;3.50;;;1.20;;
65289;SDS011;51893;59.754;10.110;2023-04-03T15:42:49;3.00;;;0.90;;
65289;SDS011;51893;59.754;10.110;2023-04-03T15:45:19;2.40;;;0.90;;
65289;SDS011;51893;59.754;10.110;2023-04-03T15:47:48;4.40;;;1.10;;
65289;SDS011;51893;59.754;10.110;2023-04-03T15:50:18;4.30;;;1.50;;
65289;SDS011;51893;59.754;10.110;2023-04-03T15:52:48;9.10;;;1.10;;
65289;SDS011;51893;59.754;10.110;2023-04-03T15:57:49;10.90;;;1.10;;
65289;SDS011;51893;59.754;10.110;2023-04-03T16:00:16;3.30;;;1.20;;
65289;SDS011;51893;59.754;10.110;2023-04-03T16:02:45;7.20;;;1.60;;
65289;SDS011;51893;59.754;10.110;2023-04-03T16:05:14;6.00;;;1.20;;
65289;SDS011;51893;59.754;10.110;2023-04-03T16:07:44;3.50;;;1.40;;
65289;SDS011;51893;59.754;10.110;2023-04-03T16:10:14;4.30;;;1.20;;
65289;SDS011;51893;59.754;10.110;2023-04-03T16:12:43;1.90;;;0.90;;
65289;SDS011;51893;59.754;10.110;2023-04-03T16:15:10;4.30;;;1.30;;
65289;SDS011;51893;59.754;10.110;2023-04-03T16:17:38;6.10;;;1.50;;
65289;SDS011;51893;59.754;10.110;2023-04-03T16:20:09;3.20;;;1.10;;
65289;SDS011;51893;59.754;10.110;2023-04-03T16:22:40;3.20;;;1.80;;
65289;SDS011;51893;59.754;10.110;2023-04-03T16:25:10;12.00;;;1.70;;
65289;SDS011;51893;59.754;10.110;2023-04-03T16:27:36;2.40;;;0.90;;
65289;SDS011;51893;59.754;10.110;2023-04-03T16:30:07;1.10;;;0.80;;
65289;SDS011;51893;59.754;10.110;2023-04-03T16:32:35;7.30;;;0.90;;